aviador You're here:

KMAW Decoded Metar

in
Report Time2018-04-26 13:15:00
UTC Time2018-04-26 13:27:41
Flight Rules mvfr MVFR
Wind020° at 08 kt
W.Decomp.*RWY 36: 7.5 kt HW 2.7 kt RCW
RWY 32: 4.0 kt HW 6.9 kt RCW
W.Rank020° ranks 6
Current wind is above 020° avg. (7.5)
Visibility9999 m
Phenomena:N/A
Clouds:Overcast 013 Hf
Expected CloudBase > 800 ft AGL from Temp-Dew spread
Ceiling1,300 ft
Temp14°C
Dew Point12°C (88% RH)
AAT11.8°C
QNH1013 hPa
Raw Report
KMAW 261315Z AUTO 02008KT 10SM OVC013 14/12 A2991 RMK AO2=

Extra information for KMAW:More info

Social comments